Time;durP1;ratioP1;P1;durP2;ratioP2;P2;SDS_P1;SDS_P2;PMS_P1;PMS_P2;Temp;Humidity;BMP_temperature;BMP_pressure;BME280_temperature;BME280_humidity;BME280_pressure;Samples;Min_cycle;Max_cycle;Signal;HPM_P1;HPM_P2
2023/09/20 00:00:36;;;;;;;0.80;0.80;;;16.50;99.90;;;;;;4990400;28;20207;-54
2023/09/20 00:03:05;;;;;;;5.03;0.80;;;16.50;99.90;;;;;;4988148;28;20251;-54
2023/09/20 00:05:33;;;;;;;1.07;1.07;;;16.50;99.90;;;;;;4990011;28;20203;-54
2023/09/20 00:08:02;;;;;;;3.40;0.90;;;16.50;99.90;;;;;;4992400;28;20208;-54
2023/09/20 00:10:29;;;;;;;0.77;0.77;;;16.50;99.90;;;;;;5001497;28;20234;-54
2023/09/20 00:12:56;;;;;;;1.70;0.90;;;16.50;99.90;;;;;;4994592;28;20192;-54
2023/09/20 00:15:23;;;;;;;0.77;0.77;;;16.50;99.90;;;;;;5007455;28;20261;-54
2023/09/20 00:17:52;;;;;;;1.70;1.60;;;16.40;99.90;;;;;;4991019;28;20200;-54
2023/09/20 00:20:20;;;;;;;0.73;0.60;;;16.50;99.90;;;;;;4989824;28;20199;-54
2023/09/20 00:22:48;;;;;;;0.97;0.97;;;16.40;99.90;;;;;;4991748;28;20634;-54
2023/09/20 00:25:16;;;;;;;1.03;0.90;;;16.40;99.90;;;;;;5000416;28;20294;-54
2023/09/20 00:27:45;;;;;;;3.80;0.70;;;16.40;99.90;;;;;;5000219;28;20342;-54
2023/09/20 00:30:15;;;;;;;1.07;0.60;;;16.40;99.90;;;;;;4992712;28;20228;-54
2023/09/20 00:32:42;;;;;;;0.50;0.50;;;16.40;99.90;;;;;;4988368;28;20206;-54
2023/09/20 00:35:11;;;;;;;0.80;0.80;;;16.30;99.90;;;;;;4999669;28;20196;-54
2023/09/20 00:37:40;;;;;;;0.70;0.70;;;16.30;99.90;;;;;;4988103;28;20286;-54
2023/09/20 00:40:15;;;;;;;1.10;1.00;;;16.30;99.90;;;;;;4998467;28;20234;-54
2023/09/20 00:42:43;;;;;;;1.37;0.87;;;16.30;99.90;;;;;;4990056;28;20309;-54
2023/09/20 00:45:12;;;;;;;1.13;0.90;;;16.30;99.90;;;;;;4992251;28;20687;-54
2023/09/20 00:47:40;;;;;;;1.00;1.00;;;16.40;99.90;;;;;;4990235;28;20199;-54
2023/09/20 00:50:10;;;;;;;1.40;0.77;;;16.40;99.90;;;;;;4995176;28;20228;-54
2023/09/20 00:52:41;;;;;;;2.20;1.07;;;16.40;99.90;;;;;;4991187;28;20200;-54
2023/09/20 00:55:09;;;;;;;1.53;0.97;;;16.40;99.90;;;;;;4990466;28;20203;-54
2023/09/20 00:57:38;;;;;;;1.23;0.90;;;16.40;99.90;;;;;;4991302;28;20211;-54
2023/09/20 01:00:19;;;;;;;0.83;0.83;;;16.40;99.90;;;;;;4990268;28;20801;-54
2023/09/20 01:02:47;;;;;;;1.07;0.90;;;16.40;99.90;;;;;;4983883;28;20311;-54
2023/09/20 01:05:15;;;;;;;1.60;1.13;;;16.40;99.90;;;;;;4990748;28;20262;-54
2023/09/20 01:07:43;;;;;;;2.20;0.80;;;16.40;99.90;;;;;;4983071;28;20639;-54
2023/09/20 01:10:10;;;;;;;0.80;0.80;;;16.40;99.90;;;;;;4985583;28;20274;-54
2023/09/20 01:12:37;;;;;;;0.97;0.97;;;16.30;99.90;;;;;;4996609;28;20207;-54
2023/09/20 01:15:07;;;;;;;1.00;1.00;;;16.30;99.90;;;;;;5001270;28;20223;-54
2023/09/20 01:17:45;;;;;;;0.70;0.70;;;16.20;99.90;;;;;;4998236;28;20578;-54
2023/09/20 01:20:13;;;;;;;0.97;0.97;;;16.20;99.90;;;;;;4994744;28;20251;-54
2023/09/20 01:22:42;;;;;;;0.70;0.70;;;16.10;99.90;;;;;;5003738;28;20229;-54
2023/09/20 01:25:11;;;;;;;0.77;0.77;;;16.10;99.90;;;;;;5011816;28;20265;-54
2023/09/20 01:27:40;;;;;;;0.83;0.60;;;16.00;99.90;;;;;;5002496;28;20226;-54
2023/09/20 01:30:10;;;;;;;0.60;0.60;;;15.90;99.90;;;;;;4995349;28;20219;-54
2023/09/20 01:32:37;;;;;;;0.70;0.70;;;15.90;99.90;;;;;;4992156;28;20861;-54
2023/09/20 01:35:05;;;;;;;0.87;0.87;;;15.80;99.90;;;;;;4992007;28;20290;-54
2023/09/20 01:37:32;;;;;;;0.70;0.70;;;15.80;99.90;;;;;;4991759;28;20294;-54
2023/09/20 01:40:00;;;;;;;0.73;0.73;;;15.70;99.90;;;;;;4991119;28;20216;-54
2023/09/20 01:42:27;;;;;;;0.80;0.80;;;15.70;99.90;;;;;;4991737;28;20703;-54
2023/09/20 01:44:54;;;;;;;0.90;0.83;;;15.70;99.90;;;;;;5005676;28;20602;-54
2023/09/20 01:47:21;;;;;;;1.20;0.90;;;15.70;99.90;;;;;;5011310;28;20294;-54
2023/09/20 01:49:49;;;;;;;1.33;0.60;;;15.60;99.90;;;;;;5011420;28;20352;-54
2023/09/20 01:52:16;;;;;;;0.80;0.80;;;15.60;99.90;;;;;;5000519;28;20226;-54
2023/09/20 01:54:43;;;;;;;0.57;0.57;;;15.60;99.90;;;;;;4999654;28;20663;-54
2023/09/20 01:57:11;;;;;;;1.00;1.00;;;15.50;99.90;;;;;;4998357;28;20208;-54
2023/09/20 01:59:38;;;;;;;0.70;0.70;;;15.50;99.90;;;;;;4991689;28;20285;-54
2023/09/20 02:02:06;;;;;;;1.90;1.00;;;15.50;99.90;;;;;;4991863;28;20223;-54
2023/09/20 02:04:33;;;;;;;0.53;0.53;;;15.50;99.90;;;;;;4990490;28;20210;-54
2023/09/20 02:07:00;;;;;;;0.60;0.60;;;15.50;99.90;;;;;;4999412;28;20200;-54
2023/09/20 02:09:27;;;;;;;0.70;0.70;;;15.50;99.90;;;;;;4991237;28;20223;-54
2023/09/20 02:11:54;;;;;;;0.90;0.80;;;15.40;99.90;;;;;;4996018;28;20196;-54
2023/09/20 02:14:25;;;;;;;1.57;0.90;;;15.40;99.90;;;;;;5003086;28;20195;-54
2023/09/20 02:16:52;;;;;;;0.70;0.70;;;15.40;99.90;;;;;;5003145;28;20200;-54
2023/09/20 02:19:19;;;;;;;0.70;0.70;;;15.30;99.90;;;;;;4998693;28;20215;-53
2023/09/20 02:21:46;;;;;;;1.40;0.50;;;15.30;99.90;;;;;;5002840;28;20629;-54
2023/09/20 02:24:14;;;;;;;2.07;0.80;;;15.30;99.90;;;;;;5011047;28;20741;-54
2023/09/20 02:26:42;;;;;;;0.70;0.70;;;15.30;99.90;;;;;;5000911;28;20206;-54
2023/09/20 02:29:10;;;;;;;0.63;0.60;;;15.20;99.90;;;;;;4999082;28;20219;-54
2023/09/20 02:31:38;;;;;;;1.10;1.00;;;15.20;99.90;;;;;;4991485;28;20200;-54
2023/09/20 02:34:05;;;;;;;1.00;1.00;;;15.20;99.90;;;;;;4991490;28;20200;-55
2023/09/20 02:36:32;;;;;;;0.97;0.97;;;15.20;99.90;;;;;;4991037;28;20199;-54
2023/09/20 02:38:59;;;;;;;1.10;1.10;;;15.20;99.90;;;;;;4989731;28;20219;-54
2023/09/20 02:41:26;;;;;;;2.83;1.27;;;15.20;99.90;;;;;;4990692;28;20208;-54
2023/09/20 02:43:53;;;;;;;1.57;0.70;;;15.10;99.90;;;;;;4991318;28;20223;-54
2023/09/20 02:46:21;;;;;;;5.50;1.23;;;15.10;99.90;;;;;;4993058;28;20307;-54
2023/09/20 02:48:50;;;;;;;0.73;0.67;;;15.10;99.90;;;;;;4994940;28;20578;-54
2023/09/20 02:51:17;;;;;;;2.00;1.00;;;15.00;99.90;;;;;;4991665;28;20207;-54
2023/09/20 02:53:44;;;;;;;0.90;0.90;;;15.00;99.90;;;;;;4993828;28;20223;-54
2023/09/20 02:56:11;;;;;;;1.07;0.90;;;15.00;99.90;;;;;;5002496;28;20199;-54
2023/09/20 02:58:38;;;;;;;1.43;1.00;;;15.00;99.90;;;;;;5014403;28;20261;-53
2023/09/20 03:01:08;;;;;;;0.90;0.90;;;15.00;99.90;;;;;;4998853;28;20602;-53
2023/09/20 03:03:36;;;;;;;1.70;1.00;;;15.00;99.90;;;;;;4996198;28;20282;-53
2023/09/20 03:06:10;;;;;;;0.77;0.70;;;15.00;99.90;;;;;;4993594;28;20568;-53
2023/09/20 03:08:41;;;;;;;1.40;0.90;;;14.90;99.90;;;;;;4998084;28;20751;-53
2023/09/20 03:11:09;;;;;;;0.80;0.80;;;14.90;99.90;;;;;;4994677;28;20196;-54
2023/09/20 03:13:36;;;;;;;2.20;1.10;;;14.90;99.90;;;;;;4994442;28;20295;-53
2023/09/20 03:16:04;;;;;;;0.83;0.83;;;14.90;99.90;;;;;;4993237;28;20208;-53
2023/09/20 03:18:33;;;;;;;1.70;1.30;;;14.90;99.90;;;;;;4994404;28;20227;-53
2023/09/20 03:21:06;;;;;;;1.47;1.37;;;14.80;99.90;;;;;;4993394;28;20254;-53
2023/09/20 03:23:35;;;;;;;1.43;1.40;;;14.80;99.90;;;;;;4993553;28;20230;-53
2023/09/20 03:26:02;;;;;;;1.57;1.27;;;14.80;99.90;;;;;;4993945;28;20195;-53
2023/09/20 03:28:29;;;;;;;0.90;0.90;;;14.80;99.90;;;;;;4993870;28;20232;-53
2023/09/20 03:30:59;;;;;;;0.90;0.90;;;14.80;99.90;;;;;;4994365;28;20203;-53
2023/09/20 03:33:27;;;;;;;1.20;1.07;;;14.80;99.90;;;;;;4994152;28;20200;-53
2023/09/20 03:35:54;;;;;;;1.40;1.30;;;14.80;99.90;;;;;;4992832;28;20348;-53
2023/09/20 03:38:21;;;;;;;1.57;1.47;;;14.70;99.90;;;;;;4993624;28;20223;-53
2023/09/20 03:40:49;;;;;;;1.70;1.57;;;14.70;99.90;;;;;;4993980;28;20207;-53
2023/09/20 03:43:16;;;;;;;3.27;1.20;;;14.70;99.90;;;;;;4993978;28;20216;-53
2023/09/20 03:45:43;;;;;;;1.50;1.30;;;14.70;99.90;;;;;;4993517;28;20208;-53
2023/09/20 03:48:10;;;;;;;2.03;0.97;;;14.70;99.90;;;;;;4993591;28;20204;-53
2023/09/20 03:50:43;;;;;;;5.10;1.37;;;14.60;99.90;;;;;;4992217;28;20254;-53
2023/09/20 03:53:10;;;;;;;1.50;1.40;;;14.60;99.90;;;;;;4993719;28;20196;-53
2023/09/20 03:55:37;;;;;;;2.23;1.27;;;14.60;99.90;;;;;;4992178;28;20698;-53
2023/09/20 03:58:06;;;;;;;1.10;1.10;;;14.60;99.90;;;;;;5000141;28;20231;-53
2023/09/20 04:00:34;;;;;;;1.27;1.20;;;14.60;99.90;;;;;;4993641;28;20668;-54
2023/09/20 04:03:05;;;;;;;1.27;1.13;;;14.60;99.90;;;;;;4992456;28;20226;-53
2023/09/20 04:05:33;;;;;;;1.47;1.03;;;14.60;99.90;;;;;;4993108;28;20227;-54
2023/09/20 04:08:00;;;;;;;0.93;0.93;;;14.60;99.90;;;;;;4993337;28;20262;-53
2023/09/20 04:10:27;;;;;;;1.80;1.20;;;14.60;99.90;;;;;;4993350;28;20250;-53
2023/09/20 04:12:54;;;;;;;1.10;1.00;;;14.60;99.90;;;;;;4993416;28;20200;-53
2023/09/20 04:15:23;;;;;;;1.10;1.10;;;14.50;99.90;;;;;;4992286;28;20579;-54
2023/09/20 04:17:51;;;;;;;1.30;1.30;;;14.50;99.90;;;;;;4991839;28;20291;-53
2023/09/20 04:20:20;;;;;;;1.57;1.57;;;14.50;99.90;;;;;;4991513;28;20255;-53
2023/09/20 04:22:49;;;;;;;2.47;1.20;;;14.50;99.90;;;;;;4993071;28;20595;-53
2023/09/20 04:25:17;;;;;;;1.13;1.03;;;14.50;99.90;;;;;;4993072;28;20575;-53
2023/09/20 04:27:44;;;;;;;2.73;1.20;;;14.50;99.90;;;;;;4992865;28;20204;-53
2023/09/20 04:30:13;;;;;;;1.30;1.20;;;14.50;99.90;;;;;;4992831;28;20222;-53
2023/09/20 04:32:42;;;;;;;3.47;1.30;;;14.50;99.90;;;;;;4990504;28;20203;-53
2023/09/20 04:35:09;;;;;;;2.40;2.03;;;14.40;99.90;;;;;;4996052;28;20199;-53
2023/09/20 04:37:36;;;;;;;9.87;5.47;;;14.40;99.90;;;;;;4997125;28;20273;-53
2023/09/20 04:40:04;;;;;;;5.57;5.00;;;14.40;99.90;;;;;;4995642;28;20274;-53
2023/09/20 04:42:33;;;;;;;5.37;4.77;;;14.40;99.90;;;;;;4993321;28;20204;-53
2023/09/20 04:45:00;;;;;;;6.07;5.33;;;14.30;99.90;;;;;;4991316;28;20236;-53
2023/09/20 04:47:28;;;;;;;3.73;3.43;;;14.30;99.90;;;;;;4993744;28;20822;-53
2023/09/20 04:49:56;;;;;;;3.03;2.10;;;14.30;99.90;;;;;;4994619;28;20587;-53
2023/09/20 04:52:24;;;;;;;4.37;1.73;;;14.30;99.90;;;;;;4992608;28;20283;-53
2023/09/20 04:54:52;;;;;;;1.57;1.57;;;14.30;99.90;;;;;;4992780;28;20207;-54
2023/09/20 04:57:20;;;;;;;2.03;1.53;;;14.30;99.90;;;;;;4992179;28;20200;-53
2023/09/20 04:59:47;;;;;;;2.63;2.43;;;14.20;99.90;;;;;;4991444;28;20250;-53
2023/09/20 05:02:14;;;;;;;1.93;1.83;;;14.20;99.90;;;;;;5020156;23;20286;-56
2023/09/20 05:04:42;;;;;;;3.33;2.40;;;14.20;99.90;;;;;;5009273;28;20741;-56
2023/09/20 05:07:11;;;;;;;4.10;2.47;;;14.10;99.90;;;;;;5012095;28;20230;-56
2023/09/20 05:09:38;;;;;;;5.90;4.37;;;14.10;99.90;;;;;;5011937;28;20199;-56
2023/09/20 05:12:05;;;;;;;5.40;4.23;;;14.10;99.90;;;;;;5002505;28;20306;-56
2023/09/20 05:14:32;;;;;;;5.07;3.63;;;14.10;99.90;;;;;;5002696;28;20200;-56
2023/09/20 05:16:59;;;;;;;5.93;5.37;;;14.10;99.90;;;;;;5010066;28;20729;-56
2023/09/20 05:19:28;;;;;;;6.83;3.97;;;14.10;99.90;;;;;;5009537;28;20229;-56
2023/09/20 05:21:55;;;;;;;2.33;1.90;;;14.10;99.90;;;;;;5010308;28;20219;-56
2023/09/20 05:24:26;;;;;;;1.53;1.53;;;14.10;99.90;;;;;;5011733;28;20246;-56
2023/09/20 05:26:53;;;;;;;1.37;1.37;;;14.10;99.90;;;;;;5008114;28;20745;-58
2023/09/20 05:29:21;;;;;;;1.37;1.27;;;14.20;99.90;;;;;;5009421;28;20504;-56
2023/09/20 05:31:49;;;;;;;1.80;1.70;;;14.10;99.90;;;;;;5007412;28;20691;-56
2023/09/20 05:34:16;;;;;;;2.50;2.30;;;14.10;99.90;;;;;;5000180;28;20222;-56
2023/09/20 05:36:45;;;;;;;2.27;1.50;;;14.10;99.90;;;;;;5003721;28;20818;-56
2023/09/20 05:39:12;;;;;;;1.50;1.50;;;14.20;99.90;;;;;;5004648;28;20211;-56
2023/09/20 05:41:41;;;;;;;1.97;1.87;;;14.30;99.90;;;;;;5011668;28;20218;-58
2023/09/20 05:44:10;;;;;;;2.33;1.80;;;14.50;99.90;;;;;;5004594;28;20751;-55
2023/09/20 05:46:37;;;;;;;3.90;1.60;;;14.60;99.90;;;;;;5008553;28;20203;-55
2023/09/20 05:49:03;;;;;;;1.33;1.23;;;14.60;99.90;;;;;;5010257;28;20663;-56
2023/09/20 05:51:30;;;;;;;3.70;1.53;;;14.70;99.90;;;;;;5003531;28;20228;-55
2023/09/20 05:53:57;;;;;;;2.20;2.10;;;14.80;99.90;;;;;;5011476;28;20551;-55
2023/09/20 05:56:25;;;;;;;2.03;1.83;;;14.80;99.90;;;;;;5010599;28;20203;-56
2023/09/20 05:58:54;;;;;;;2.00;1.60;;;14.80;99.90;;;;;;5003590;28;20226;-56
2023/09/20 06:01:20;;;;;;;1.60;1.50;;;15.00;99.90;;;;;;5010466;28;20330;-55
2023/09/20 06:03:47;;;;;;;2.00;1.30;;;15.80;99.90;;;;;;5004531;28;20230;-56
2023/09/20 06:06:14;;;;;;;2.93;1.40;;;16.80;99.90;;;;;;5006446;28;20285;-56
2023/09/20 06:08:42;;;;;;;1.47;1.23;;;17.90;99.90;;;;;;5011270;28;20233;-56
2023/09/20 06:11:09;;;;;;;6.47;1.57;;;18.90;99.90;;;;;;5011143;28;20269;-56
2023/09/20 06:13:36;;;;;;;1.23;1.20;;;19.40;99.90;;;;;;5003490;28;20594;-56
2023/09/20 06:16:07;;;;;;;1.33;1.17;;;20.30;99.90;;;;;;5006246;28;20207;-56
2023/09/20 06:18:35;;;;;;;3.17;1.47;;;21.10;99.90;;;;;;5008033;28;20203;-57
2023/09/20 06:21:03;;;;;;;4.40;2.30;;;21.30;99.90;;;;;;5011417;28;20284;-56
2023/09/20 06:23:32;;;;;;;8.63;3.87;;;21.20;99.90;;;;;;5018371;28;20215;-57
2023/09/20 06:26:04;;;;;;;4.63;3.10;;;20.60;99.90;;;;;;5009460;28;20203;-56
2023/09/20 06:28:32;;;;;;;5.60;1.70;;;20.40;99.90;;;;;;5007470;28;20294;-56
2023/09/20 06:31:00;;;;;;;2.20;1.20;;;19.80;99.90;;;;;;5007582;28;20277;-56
2023/09/20 06:33:29;;;;;;;1.83;1.20;;;19.20;99.90;;;;;;5005893;28;20203;-56
2023/09/20 06:35:57;;;;;;;1.20;1.10;;;18.80;99.90;;;;;;5013858;28;20628;-56
2023/09/20 06:38:24;;;;;;;1.83;1.10;;;18.40;99.90;;;;;;5012089;28;20209;-56
2023/09/20 06:40:52;;;;;;;0.90;0.90;;;18.00;99.90;;;;;;5014396;28;20230;-56
2023/09/20 06:43:20;;;;;;;1.02;1.00;;;17.80;99.90;;;;;;5012363;28;20880;-56
2023/09/20 06:45:50;;;;;;;2.37;0.90;;;17.60;99.90;;;;;;5012420;28;20690;-64
2023/09/20 06:48:20;;;;;;;4.20;1.00;;;17.50;99.90;;;;;;5006043;28;20210;-64
2023/09/20 06:50:49;;;;;;;2.80;0.90;;;17.30;99.90;;;;;;5007315;28;20203;-65
2023/09/20 06:53:17;;;;;;;1.00;1.00;;;17.20;99.90;;;;;;5010946;28;20199;-65
2023/09/20 06:55:44;;;;;;;2.67;1.00;;;17.20;99.90;;;;;;4999316;28;20234;-64
2023/09/20 06:58:12;;;;;;;1.77;1.07;;;17.10;99.90;;;;;;5020395;28;20199;-65
2023/09/20 07:00:38;;;;;;;3.33;0.90;;;17.10;99.90;;;;;;5021772;28;20238;-65
2023/09/20 07:03:06;;;;;;;1.97;0.90;;;17.00;99.90;;;;;;5020598;28;20280;-65
2023/09/20 07:05:33;;;;;;;1.47;1.30;;;17.00;99.90;;;;;;5008818;28;20206;-63
2023/09/20 07:08:04;;;;;;;0.90;0.90;;;16.90;99.90;;;;;;5013423;28;20732;-63
2023/09/20 07:10:32;;;;;;;1.33;1.33;;;16.90;99.90;;;;;;5019884;28;20203;-63
2023/09/20 07:13:00;;;;;;;2.10;1.07;;;16.90;99.90;;;;;;5012219;28;20215;-63
2023/09/20 07:15:28;;;;;;;2.57;1.87;;;17.10;99.90;;;;;;5003457;28;20200;-63
2023/09/20 07:18:11;;;;;;;3.20;1.10;;;17.00;99.90;;;;;;5008296;28;20207;-63
2023/09/20 07:20:41;;;;;;;3.80;0.93;;;17.00;99.90;;;;;;5016370;28;20230;-64
2023/09/20 07:23:12;;;;;;;1.03;1.03;;;17.10;99.90;;;;;;5011384;28;20231;-64
2023/09/20 07:25:40;;;;;;;1.40;1.10;;;17.20;99.90;;;;;;5012775;28;20685;-64
2023/09/20 07:28:09;;;;;;;3.07;0.90;;;17.30;99.90;;;;;;5023613;28;20195;-63
2023/09/20 07:30:40;;;;;;;1.07;0.73;;;17.50;99.90;;;;;;5022404;28;20214;-64
2023/09/20 07:33:11;;;;;;;1.00;1.00;;;17.40;99.90;;;;;;5018118;28;20207;-63
2023/09/20 07:35:39;;;;;;;1.57;1.20;;;17.40;99.90;;;;;;5011401;28;20285;-63
2023/09/20 07:38:17;;;;;;;2.93;0.90;;;17.60;99.90;;;;;;5019967;28;20206;-64
2023/09/20 07:40:50;;;;;;;1.00;1.00;;;17.70;99.90;;;;;;5008109;28;20194;-63
2023/09/20 07:43:18;;;;;;;2.63;0.80;;;17.80;99.90;;;;;;5009775;28;20223;-63
2023/09/20 07:45:45;;;;;;;2.00;1.10;;;18.00;99.90;;;;;;5013323;28;20905;-64
2023/09/20 07:48:21;;;;;;;2.47;0.90;;;18.20;99.90;;;;;;5013455;28;20206;-64
2023/09/20 07:50:50;;;;;;;0.80;0.80;;;18.20;99.90;;;;;;5004040;28;20221;-65
2023/09/20 07:53:20;;;;;;;1.27;0.60;;;18.40;99.90;;;;;;5011011;28;20207;-64
2023/09/20 07:55:58;;;;;;;0.83;0.73;;;18.40;99.90;;;;;;5008129;28;20667;-64
2023/09/20 07:58:26;;;;;;;1.77;1.57;;;18.50;99.90;;;;;;5002290;28;20203;-65
2023/09/20 08:00:56;;;;;;;2.80;0.77;;;18.80;99.90;;;;;;5005784;28;20227;-65
2023/09/20 08:03:23;;;;;;;1.70;0.50;;;19.00;99.90;;;;;;5009656;28;20258;-65
2023/09/20 08:05:51;;;;;;;1.47;0.70;;;19.30;99.90;;;;;;5000099;28;20265;-65
2023/09/20 08:08:19;;;;;;;0.97;0.93;;;19.60;99.90;;;;;;5012737;28;20227;-64
2023/09/20 08:10:46;;;;;;;0.70;0.60;;;20.50;99.90;;;;;;5006690;28;20211;-63
2023/09/20 08:13:14;;;;;;;0.70;0.70;;;21.40;99.90;;;;;;5005956;28;20579;-63
2023/09/20 08:15:42;;;;;;;0.60;0.50;;;22.50;99.90;;;;;;5007028;28;20200;-63
2023/09/20 08:20:54;;;;;;;3.73;0.73;;;23.90;99.90;;;;;;5003155;28;20284;-63
2023/09/20 09:02:02;;;;;;;3.70;0.70;;;27.80;99.90;;;;;;5009495;28;20230;-65
2023/09/20 09:04:29;;;;;;;0.47;0.47;;;28.10;99.90;;;;;;5009819;28;20219;-65
2023/09/20 09:06:56;;;;;;;1.13;0.75;;;28.20;99.90;;;;;;5008479;28;20211;-66
2023/09/20 09:09:24;;;;;;;0.40;0.40;;;28.20;99.90;;;;;;5012561;28;20257;-65
2023/09/20 09:11:58;;;;;;;0.47;0.47;;;28.00;99.90;;;;;;5004198;28;20230;-65
2023/09/20 09:14:29;;;;;;;0.85;0.30;;;28.00;99.90;;;;;;4997666;28;20637;-64
2023/09/20 09:17:02;;;;;;;0.60;0.60;;;28.30;99.90;;;;;;5001258;28;20207;-64
2023/09/20 09:19:29;;;;;;;2.00;0.50;;;28.40;99.90;;;;;;5001885;28;20286;-65
2023/09/20 09:21:57;;;;;;;0.95;0.80;;;28.70;99.90;;;;;;5002491;28;20341;-62
2023/09/20 09:24:27;;;;;;;0.88;0.50;;;28.90;99.90;;;;;;5001468;28;20266;-64
2023/09/20 09:27:06;;;;;;;0.43;0.43;;;29.00;99.90;;;;;;4999692;28;20291;-66
2023/09/20 09:29:33;;;;;;;1.55;0.50;;;29.40;99.90;;;;;;5005944;28;20690;-67
2023/09/20 09:32:02;;;;;;;0.30;0.30;;;29.10;99.90;;;;;;5010209;28;20246;-66
2023/09/20 09:34:29;;;;;;;0.60;0.60;;;29.60;99.90;;;;;;5019374;28;20257;-63
2023/09/20 09:36:56;;;;;;;0.45;0.45;;;29.60;99.90;;;;;;5005659;28;20223;-63
2023/09/20 09:39:26;;;;;;;1.90;0.70;;;29.50;99.90;;;;;;5010447;28;20250;-63
2023/09/20 09:41:54;;;;;;;0.30;0.30;;;29.50;99.90;;;;;;5006080;28;20258;-64
2023/09/20 09:44:27;;;;;;;2.83;0.50;;;29.40;99.90;;;;;;5001397;28;20717;-61
2023/09/20 09:46:54;;;;;;;1.27;0.85;;;29.10;99.90;;;;;;5011293;28;20545;-63
2023/09/20 09:49:27;;;;;;;1.33;0.50;;;29.10;99.90;;;;;;5003072;28;20210;-64
2023/09/20 09:51:54;;;;;;;0.32;0.30;;;29.50;99.90;;;;;;5000574;28;20231;-65
2023/09/20 09:54:26;;;;;;;0.75;0.40;;;29.40;99.90;;;;;;5004483;28;20196;-65
2023/09/20 09:56:53;;;;;;;0.30;0.30;;;29.60;99.90;;;;;;5003040;28;20682;-62
2023/09/20 09:59:23;;;;;;;1.88;0.70;;;30.00;99.90;;;;;;5011381;28;20199;-64
2023/09/20 10:01:55;;;;;;;0.38;0.30;;;30.20;99.90;;;;;;5003823;28;20227;-68
2023/09/20 10:04:26;;;;;;;0.30;0.30;;;30.60;99.90;;;;;;5009553;28;20215;-66
2023/09/20 10:07:02;;;;;;;1.65;0.30;;;30.70;99.70;;;;;;5010920;28;20195;-66
2023/09/20 10:09:36;;;;;;;1.38;0.40;;;30.30;99.20;;;;;;5006813;28;20701;-65
2023/09/20 10:12:04;;;;;;;0.40;0.40;;;30.30;99.90;;;;;;4997499;28;20638;-63
2023/09/20 10:14:36;;;;;;;0.93;0.35;;;29.80;99.90;;;;;;5000061;28;20282;-64
2023/09/20 10:17:06;;;;;;;0.30;0.30;;;30.10;99.90;;;;;;5002507;28;20203;-63
2023/09/20 10:19:36;;;;;;;0.52;0.30;;;30.10;99.90;;;;;;5001600;28;20286;-61
2023/09/20 10:22:09;;;;;;;0.57;0.38;;;30.20;99.90;;;;;;4999529;28;20218;-57
2023/09/20 10:24:45;;;;;;;0.32;0.30;;;30.20;99.90;;;;;;5007211;28;20306;-57
2023/09/20 10:27:19;;;;;;;1.17;0.57;;;30.30;99.90;;;;;;5011704;28;20210;-58
2023/09/20 10:30:00;;;;;;;0.40;0.40;;;29.80;99.90;;;;;;5003651;28;20199;-58
2023/09/20 10:32:32;;;;;;;0.30;0.30;;;29.80;99.90;;;;;;5000219;28;20740;-58
2023/09/20 10:35:19;;;;;;;1.13;0.50;;;29.60;99.90;;;;;;5005654;28;20191;-58
2023/09/20 10:37:59;;;;;;;2.35;0.40;;;29.20;99.90;;;;;;5000969;28;20199;-56
2023/09/20 10:40:59;;;;;;;0.40;0.40;;;28.90;99.90;;;;;;5005374;28;20230;-58
2023/09/20 10:43:42;;;;;;;0.30;0.30;;;28.50;99.90;;;;;;5000823;28;20203;-56
2023/09/20 10:46:11;;;;;;;0.50;0.50;;;28.20;99.90;;;;;;4999508;28;20226;-65
2023/09/20 10:48:44;;;;;;;1.83;0.50;;;27.90;99.90;;;;;;5003920;28;20223;-63
2023/09/20 10:51:11;;;;;;;1.10;0.40;;;27.50;99.90;;;;;;5006327;28;20230;-62
2023/09/20 10:54:02;;;;;;;0.40;0.40;;;27.00;99.90;;;;;;5001704;28;20207;-63
2023/09/20 10:56:52;;;;;;;1.50;0.40;;;26.70;99.90;;;;;;5000217;28;20213;-64
2023/09/20 10:59:21;;;;;;;0.50;0.50;;;26.40;99.90;;;;;;5006048;28;20235;-63
2023/09/20 11:01:51;;;;;;;0.40;0.40;;;26.40;99.90;;;;;;5061146;23;20810;-59
2023/09/20 11:04:19;;;;;;;1.27;0.50;;;26.40;99.90;;;;;;5006544;28;20722;-59
2023/09/20 11:06:47;;;;;;;0.50;0.50;;;26.30;99.90;;;;;;5016129;28;20744;-59
2023/09/20 11:09:14;;;;;;;0.52;0.52;;;26.30;99.90;;;;;;5011053;28;20281;-56
2023/09/20 11:11:42;;;;;;;1.73;0.40;;;26.20;99.90;;;;;;5009865;28;20657;-57
2023/09/20 11:14:09;;;;;;;1.25;0.57;;;26.10;99.90;;;;;;5012926;28;20229;-56
2023/09/20 11:16:40;;;;;;;3.25;0.80;;;26.00;99.90;;;;;;5012933;28;20199;-57
2023/09/20 11:19:09;;;;;;;0.40;0.40;;;26.00;99.90;;;;;;5012057;28;20207;-58
2023/09/20 11:21:37;;;;;;;2.90;0.97;;;25.80;99.90;;;;;;5011865;28;20360;-57
2023/09/20 11:24:06;;;;;;;1.07;0.70;;;25.80;99.90;;;;;;5024833;28;20202;-57
2023/09/20 11:26:33;;;;;;;1.13;1.00;;;25.70;99.90;;;;;;5010360;28;20227;-58
2023/09/20 11:29:00;;;;;;;1.73;1.40;;;25.50;99.90;;;;;;5011148;28;20262;-57
2023/09/20 11:31:28;;;;;;;2.17;2.10;;;25.10;99.90;;;;;;5021246;28;20199;-57
2023/09/20 11:33:58;;;;;;;2.67;2.57;;;24.80;99.90;;;;;;5017387;28;20636;-57
2023/09/20 11:36:26;;;;;;;3.70;2.17;;;24.60;99.90;;;;;;5023753;28;20697;-57
2023/09/20 11:38:54;;;;;;;3.57;2.50;;;24.30;99.90;;;;;;5009686;28;20203;-57
2023/09/20 11:41:24;;;;;;;2.67;2.57;;;24.30;99.90;;;;;;5011096;28;20574;-57
2023/09/20 11:43:56;;;;;;;3.43;3.17;;;24.40;99.90;;;;;;5017816;28;20288;-53
2023/09/20 11:46:26;;;;;;;5.57;3.77;;;24.20;99.90;;;;;;5018720;28;20406;-58
2023/09/20 11:48:58;;;;;;;2.67;2.60;;;24.00;99.90;;;;;;5011517;28;20238;-57
2023/09/20 11:51:26;;;;;;;3.00;2.83;;;24.00;99.90;;;;;;5013272;28;20294;-57
2023/09/20 11:53:54;;;;;;;2.93;2.63;;;23.80;99.90;;;;;;5012322;28;20282;-56
2023/09/20 11:56:25;;;;;;;2.97;2.40;;;23.60;99.90;;;;;;5010679;28;20650;-56
2023/09/20 11:58:53;;;;;;;2.03;1.93;;;23.60;99.90;;;;;;5023180;28;20199;-56
2023/09/20 12:01:25;;;;;;;2.37;2.17;;;23.70;99.90;;;;;;5009472;28;20282;-56
2023/09/20 12:03:52;;;;;;;1.77;1.67;;;23.80;99.90;;;;;;5009508;28;20210;-56
2023/09/20 12:06:19;;;;;;;4.47;2.10;;;23.70;99.90;;;;;;5011990;28;20219;-57
2023/09/20 12:08:46;;;;;;;1.63;1.40;;;23.60;99.90;;;;;;5018070;28;20242;-56
2023/09/20 12:11:15;;;;;;;2.23;1.40;;;23.50;99.90;;;;;;5012442;28;20309;-57
2023/09/20 12:13:43;;;;;;;2.03;1.40;;;23.60;99.90;;;;;;5012224;28;20302;-57
2023/09/20 12:16:11;;;;;;;2.23;2.03;;;23.60;99.90;;;;;;5018008;28;20209;-57
2023/09/20 12:18:38;;;;;;;0.90;0.90;;;23.70;99.90;;;;;;5013517;28;20208;-57
2023/09/20 12:21:07;;;;;;;1.07;1.07;;;23.80;99.90;;;;;;5023652;28;20198;-57
2023/09/20 12:23:35;;;;;;;1.00;0.90;;;23.80;99.90;;;;;;5012126;28;20252;-57
2023/09/20 12:26:03;;;;;;;2.00;0.80;;;23.80;99.90;;;;;;5016593;28;20712;-59
2023/09/20 12:28:31;;;;;;;1.27;1.00;;;23.90;99.90;;;;;;5020657;28;20211;-60
2023/09/20 12:30:58;;;;;;;1.87;1.00;;;23.80;99.90;;;;;;5012174;28;20203;-60
2023/09/20 12:33:25;;;;;;;0.93;0.83;;;23.70;99.90;;;;;;5014793;28;20689;-58
2023/09/20 12:35:53;;;;;;;2.53;1.50;;;23.50;99.90;;;;;;5020483;28;20194;-58
2023/09/20 12:38:20;;;;;;;1.50;0.70;;;23.60;99.90;;;;;;5012348;28;20274;-52
2023/09/20 12:40:47;;;;;;;0.93;0.93;;;23.50;99.90;;;;;;5011535;28;20686;-59
2023/09/20 12:43:15;;;;;;;2.83;1.00;;;23.70;99.90;;;;;;5009901;28;20222;-56
2023/09/20 12:45:44;;;;;;;0.70;0.70;;;23.80;99.90;;;;;;5018651;28;20257;-53
2023/09/20 12:48:11;;;;;;;1.80;0.67;;;23.90;99.90;;;;;;5009928;28;20638;-58
2023/09/20 12:50:38;;;;;;;0.70;0.70;;;24.10;99.90;;;;;;5010073;28;20207;-58
2023/09/20 12:53:06;;;;;;;0.80;0.80;;;24.20;99.90;;;;;;5004796;28;20219;-58
2023/09/20 12:55:36;;;;;;;1.30;0.60;;;24.40;99.90;;;;;;5002628;28;20203;-58
2023/09/20 12:58:04;;;;;;;0.60;0.60;;;24.50;99.90;;;;;;5013374;28;20575;-60
2023/09/20 13:00:31;;;;;;;0.70;0.70;;;24.70;99.90;;;;;;5010224;28;20265;-60
2023/09/20 13:03:00;;;;;;;1.20;0.70;;;24.90;99.90;;;;;;5010334;28;20226;-59
2023/09/20 13:05:27;;;;;;;1.23;0.70;;;25.10;99.90;;;;;;5014283;28;20302;-57
2023/09/20 13:07:56;;;;;;;0.60;0.60;;;25.00;99.90;;;;;;5011429;28;20207;-57
2023/09/20 13:10:23;;;;;;;0.50;0.50;;;24.80;99.90;;;;;;5019652;28;20285;-57
2023/09/20 13:12:50;;;;;;;0.50;0.50;;;24.70;99.90;;;;;;5007227;28;20235;-57
2023/09/20 13:15:19;;;;;;;1.57;0.67;;;24.60;99.90;;;;;;5011621;28;20223;-58
2023/09/20 13:17:48;;;;;;;1.93;0.70;;;24.60;99.90;;;;;;5021888;28;20199;-57
2023/09/20 13:20:18;;;;;;;0.70;0.70;;;24.40;99.90;;;;;;5022620;28;20285;-57
2023/09/20 13:22:46;;;;;;;1.20;0.60;;;24.30;99.90;;;;;;5015076;28;20233;-57
2023/09/20 13:25:18;;;;;;;0.83;0.83;;;24.30;99.90;;;;;;5012240;28;20227;-58
2023/09/20 13:27:45;;;;;;;0.60;0.60;;;24.30;99.90;;;;;;5009147;28;20199;-57
2023/09/20 13:30:13;;;;;;;1.30;0.73;;;24.30;99.90;;;;;;5008726;28;20199;-57
2023/09/20 13:32:41;;;;;;;1.63;0.43;;;24.30;99.90;;;;;;5003078;28;20226;-56
2023/09/20 13:35:10;;;;;;;0.40;0.40;;;24.30;99.90;;;;;;5003131;28;20212;-57
2023/09/20 13:37:40;;;;;;;0.97;0.40;;;24.40;99.90;;;;;;5000618;28;20203;-57